createdAt,value
2024-03-05T00:00:24.487Z,29.87
2024-03-05T00:02:52.841Z,30.30
2024-03-05T00:05:21.460Z,26.83
2024-03-05T00:07:49.971Z,31.40
2024-03-05T00:10:18.654Z,30.27
2024-03-05T00:12:47.648Z,31.80
2024-03-05T00:15:17.697Z,28.93
2024-03-05T00:17:45.990Z,26.67
2024-03-05T00:20:19.907Z,29.07
2024-03-05T00:22:52.904Z,30.23
2024-03-05T00:25:21.298Z,29.37
2024-03-05T00:27:50.091Z,25.87
2024-03-05T00:30:22.710Z,27.77
2024-03-05T00:32:51.138Z,28.30
2024-03-05T00:35:19.493Z,28.67
2024-03-05T00:37:47.929Z,28.33
2024-03-05T00:40:16.413Z,28.63
2024-03-05T00:42:45.059Z,26.67
2024-03-05T00:45:13.702Z,29.53
2024-03-05T00:47:43.959Z,26.67
2024-03-05T00:50:14.414Z,28.47
2024-03-05T00:52:42.818Z,31.93
2024-03-05T00:55:11.304Z,27.00
2024-03-05T00:57:40.054Z,29.50
2024-03-05T01:00:10.636Z,26.77
2024-03-05T01:02:38.900Z,25.03
2024-03-05T01:05:11.352Z,25.30
2024-03-05T01:07:40.098Z,27.33
2024-03-05T01:10:09.724Z,24.77
2024-03-05T01:12:38.410Z,26.17
2024-03-05T01:15:09.600Z,25.00
2024-03-05T01:17:38.557Z,25.13
2024-03-05T01:20:16.715Z,27.93
2024-03-05T01:22:45.226Z,26.87
2024-03-05T01:25:16.458Z,25.77
2024-03-05T01:27:45.276Z,25.87
2024-03-05T01:30:15.064Z,30.87
2024-03-05T01:32:44.880Z,28.03
2024-03-05T01:35:14.654Z,26.50
2024-03-05T01:37:43.071Z,25.57
2024-03-05T01:40:12.252Z,26.70
2024-03-05T01:42:40.568Z,27.20
2024-03-05T01:45:10.545Z,29.13
2024-03-05T01:47:39.294Z,28.43
2024-03-05T01:50:10.503Z,28.93
2024-03-05T01:52:40.542Z,32.43
2024-03-05T01:55:14.534Z,29.17
2024-03-05T01:57:44.498Z,27.07
2024-03-05T02:00:21.692Z,29.07
2024-03-05T02:02:51.607Z,27.03
2024-03-05T02:05:20.456Z,28.57
2024-03-05T02:07:51.085Z,30.10
2024-03-05T02:10:19.777Z,29.33
2024-03-05T02:12:48.068Z,32.30
2024-03-05T02:15:16.424Z,28.83
2024-03-05T02:17:45.065Z,31.17
2024-03-05T02:20:14.864Z,28.07
2024-03-05T02:22:47.525Z,31.47
2024-03-05T02:25:18.640Z,28.37
2024-03-05T02:27:50.883Z,29.80
2024-03-05T02:30:19.587Z,29.60
2024-03-05T02:32:49.272Z,31.50
2024-03-05T02:35:17.767Z,32.53
2024-03-05T02:37:47.497Z,30.70
2024-03-05T02:40:16.052Z,29.83
2024-03-05T02:42:45.793Z,34.47
2024-03-05T02:45:22.087Z,31.53
2024-03-05T02:47:50.451Z,35.20
2024-03-05T02:50:20.314Z,30.33
2024-03-05T02:52:50.060Z,30.77
2024-03-05T02:55:18.425Z,30.17
2024-03-05T02:57:47.230Z,31.77
2024-03-05T03:00:21.298Z,29.63
2024-03-05T03:02:50.874Z,28.33
2024-03-05T03:05:22.288Z,29.43
2024-03-05T03:07:52.942Z,30.87
2024-03-05T03:10:21.927Z,32.40
2024-03-05T03:12:51.103Z,32.07
2024-03-05T03:15:21.043Z,32.83
2024-03-05T03:17:49.817Z,32.50
2024-03-05T03:20:19.841Z,36.37
2024-03-05T03:22:48.822Z,32.70
2024-03-05T03:25:18.741Z,31.30
2024-03-05T03:27:47.460Z,32.10
2024-03-05T03:30:21.592Z,34.30
2024-03-05T03:32:51.228Z,32.87
2024-03-05T03:35:20.339Z,32.83
2024-03-05T03:37:48.964Z,33.70
2024-03-05T03:40:23.373Z,30.20
2024-03-05T03:42:53.618Z,33.07
2024-03-05T03:45:22.656Z,32.47
2024-03-05T03:47:51.431Z,33.73
2024-03-05T03:50:22.727Z,38.27
2024-03-05T03:52:51.130Z,32.07
2024-03-05T03:55:20.799Z,31.30
2024-03-05T03:57:49.592Z,30.83
2024-03-05T04:00:20.083Z,31.03
2024-03-05T04:02:48.860Z,32.20
2024-03-05T04:05:17.557Z,32.93
2024-03-05T04:07:46.033Z,34.83
2024-03-05T04:10:14.739Z,32.03
2024-03-05T04:12:44.526Z,33.87
2024-03-05T04:15:13.693Z,35.97
2024-03-05T04:17:42.529Z,33.17
2024-03-05T04:20:16.000Z,35.40
2024-03-05T04:22:45.188Z,31.73
2024-03-05T04:25:15.057Z,33.83
2024-03-05T04:27:47.691Z,38.87
2024-03-05T04:30:16.822Z,30.83
2024-03-05T04:32:58.845Z,38.47
2024-03-05T04:35:30.448Z,37.70
2024-03-05T04:37:59.227Z,37.00
2024-03-05T04:40:28.170Z,36.43
2024-03-05T04:42:58.137Z,36.93
2024-03-05T04:45:27.428Z,36.17
2024-03-05T04:47:56.206Z,39.17
2024-03-05T04:50:24.561Z,45.00
2024-03-05T04:52:54.479Z,41.83
2024-03-05T04:55:24.487Z,41.87
2024-03-05T04:57:53.464Z,40.53
2024-03-05T05:00:24.635Z,43.33
2024-03-05T05:02:54.159Z,39.13
2024-03-05T05:05:27.049Z,37.13
2024-03-05T05:07:57.919Z,39.63
2024-03-05T05:10:26.444Z,44.03
2024-03-05T05:12:57.310Z,41.37
2024-03-05T05:15:27.303Z,39.10
2024-03-05T05:17:55.587Z,45.80
2024-03-05T05:20:24.104Z,43.60
2024-03-05T05:22:52.680Z,45.20
2024-03-05T05:25:22.989Z,46.07
2024-03-05T05:27:51.597Z,40.17
2024-03-05T05:30:21.188Z,45.73
2024-03-05T05:32:50.930Z,46.50
2024-03-05T05:35:19.994Z,43.83
2024-03-05T05:37:48.699Z,48.87
2024-03-05T05:40:21.205Z,45.63
2024-03-05T05:42:53.347Z,48.20
2024-03-05T05:45:23.752Z,44.13
2024-03-05T05:47:55.426Z,45.77
2024-03-05T05:50:29.988Z,46.37
2024-03-05T05:53:00.349Z,45.30
2024-03-05T05:55:31.928Z,42.00
2024-03-05T05:58:05.272Z,44.17
2024-03-05T06:00:38.526Z,47.90
2024-03-05T06:03:09.454Z,43.97
2024-03-05T06:05:44.014Z,45.30
2024-03-05T06:08:13.130Z,45.57
2024-03-05T06:10:43.346Z,46.10
2024-03-05T06:13:12.403Z,46.50
2024-03-05T06:15:40.909Z,43.77
2024-03-05T06:18:11.065Z,44.37
2024-03-05T06:20:39.885Z,42.70
2024-03-05T06:23:08.315Z,43.23
2024-03-05T06:25:36.759Z,41.60
2024-03-05T06:28:05.693Z,43.30
2024-03-05T06:30:34.494Z,44.63
2024-03-05T06:33:03.010Z,46.87
2024-03-05T06:35:33.022Z,47.87
2024-03-05T06:38:03.499Z,53.60
2024-03-05T06:40:32.413Z,49.63
2024-03-05T06:43:14.548Z,45.53
2024-03-05T06:45:44.204Z,51.97
2024-03-05T06:48:17.653Z,50.60
2024-03-05T06:50:53.490Z,44.77
2024-03-05T06:53:39.340Z,45.47
2024-03-05T06:56:25.405Z,47.67
2024-03-05T06:58:54.440Z,51.80
2024-03-05T07:01:23.616Z,46.83
2024-03-05T07:03:52.001Z,52.73
2024-03-05T07:06:22.512Z,53.33
2024-03-05T07:08:52.792Z,50.50
2024-03-05T07:11:21.403Z,46.80
2024-03-05T07:13:51.373Z,49.70
2024-03-05T07:16:21.468Z,51.03
2024-03-05T07:18:52.151Z,54.10
2024-03-05T07:21:24.384Z,53.47
2024-03-05T07:23:55.152Z,42.07
2024-03-05T07:26:25.208Z,51.00
2024-03-05T07:28:54.351Z,51.37
2024-03-05T07:31:25.140Z,47.60
2024-03-05T07:33:54.051Z,48.50
2024-03-05T07:36:24.165Z,46.90
2024-03-05T07:38:53.980Z,50.03
2024-03-05T07:41:29.816Z,47.07
2024-03-05T07:44:04.745Z,55.83
2024-03-05T07:46:34.896Z,54.03
2024-03-05T07:49:03.750Z,53.67
2024-03-05T07:51:41.173Z,56.43
2024-03-05T07:54:15.052Z,53.47
2024-03-05T07:56:44.385Z,48.20
2024-03-05T07:59:13.020Z,51.63
2024-03-05T08:01:42.283Z,50.93
2024-03-05T08:04:10.941Z,50.00
2024-03-05T08:06:41.067Z,46.90
2024-03-05T08:09:09.741Z,50.63
2024-03-05T08:11:38.246Z,49.73
2024-03-05T08:14:09.075Z,48.77
2024-03-05T08:16:39.567Z,50.90
2024-03-05T08:19:08.608Z,53.87
2024-03-05T08:21:36.933Z,50.63
2024-03-05T08:24:07.874Z,51.23
2024-03-05T08:26:36.307Z,49.43
2024-03-05T08:29:05.112Z,50.47
2024-03-05T08:31:33.596Z,52.10
2024-03-05T08:34:05.343Z,49.87
2024-03-05T08:36:37.598Z,46.67
2024-03-05T08:39:18.533Z,46.80
2024-03-05T08:41:48.402Z,49.07
2024-03-05T08:44:18.025Z,48.40
2024-03-05T08:46:46.631Z,46.47
2024-03-05T08:49:15.118Z,46.43
2024-03-05T08:51:43.451Z,47.83
2024-03-05T08:54:16.480Z,46.50
2024-03-05T08:56:46.210Z,44.90
2024-03-05T08:59:14.574Z,46.50
2024-03-05T09:01:43.051Z,46.77
2024-03-05T09:04:11.362Z,48.23
2024-03-05T09:06:39.925Z,45.10
2024-03-05T09:09:12.375Z,45.90
2024-03-05T09:11:42.606Z,48.17
2024-03-05T09:14:11.523Z,48.13
2024-03-05T09:16:40.199Z,45.00
2024-03-05T09:19:12.105Z,45.90
2024-03-05T09:21:40.896Z,45.27
2024-03-05T09:24:09.277Z,45.13
2024-03-05T09:26:37.928Z,42.63
2024-03-05T09:29:07.634Z,45.60
2024-03-05T09:31:36.750Z,41.73
2024-03-05T09:34:05.180Z,41.90
2024-03-05T09:36:36.752Z,41.03
2024-03-05T09:39:10.592Z,46.10
2024-03-05T09:41:44.138Z,48.30
2024-03-05T09:44:14.767Z,50.17
2024-03-05T09:46:46.896Z,49.90
2024-03-05T09:49:23.068Z,44.70
2024-03-05T09:51:54.437Z,41.93
2024-03-05T09:54:22.921Z,41.00
2024-03-05T09:56:55.621Z,41.57
2024-03-05T09:59:25.355Z,38.20
2024-03-05T10:01:54.075Z,34.13
2024-03-05T10:04:27.590Z,32.43
2024-03-05T10:06:56.120Z,32.90
2024-03-05T10:09:26.022Z,26.70
2024-03-05T10:11:54.854Z,25.17
2024-03-05T10:14:27.081Z,24.77
2024-03-05T10:17:02.909Z,24.80
2024-03-05T10:19:44.063Z,26.77
2024-03-05T10:22:13.058Z,28.87
2024-03-05T10:24:41.412Z,34.87
2024-03-05T10:27:12.934Z,29.53
2024-03-05T10:29:42.768Z,30.70
2024-03-05T10:32:12.772Z,31.23
2024-03-05T10:34:47.291Z,28.47
2024-03-05T10:37:15.897Z,25.23
2024-03-05T10:39:44.479Z,23.20
2024-03-05T10:42:15.662Z,20.97
2024-03-05T10:44:47.546Z,20.73
2024-03-05T10:47:17.272Z,21.93
2024-03-05T10:49:47.369Z,23.57
2024-03-05T10:52:17.076Z,22.70
2024-03-05T10:54:48.231Z,24.57
2024-03-05T10:57:16.985Z,23.23
2024-03-05T10:59:53.616Z,23.07
2024-03-05T11:02:29.192Z,23.90
2024-03-05T11:05:00.021Z,23.70
2024-03-05T11:07:28.650Z,23.27
2024-03-05T11:09:59.245Z,20.03
2024-03-05T11:12:27.728Z,22.93
2024-03-05T11:14:58.335Z,23.70
2024-03-05T11:17:26.718Z,23.80
2024-03-05T11:19:57.757Z,20.73
2024-03-05T11:22:27.867Z,22.33
2024-03-05T11:25:00.804Z,21.60
2024-03-05T11:27:32.142Z,24.83
2024-03-05T11:30:14.172Z,26.13
2024-03-05T11:32:42.811Z,22.57
2024-03-05T11:35:13.013Z,27.47
2024-03-05T11:37:50.139Z,28.63
2024-03-05T11:40:22.680Z,23.80
2024-03-05T11:42:54.130Z,20.23
2024-03-05T11:45:46.632Z,24.30
2024-03-05T11:48:17.285Z,22.13
2024-03-05T11:50:46.050Z,24.57
2024-03-05T11:53:14.937Z,24.53
2024-03-05T11:55:43.868Z,22.53
2024-03-05T11:58:12.850Z,21.83
2024-03-05T12:00:41.404Z,23.13
2024-03-05T12:03:11.542Z,23.17
2024-03-05T12:05:45.037Z,21.30
2024-03-05T12:08:13.920Z,21.00
2024-03-05T12:10:42.423Z,19.93
2024-03-05T12:13:12.685Z,21.30
2024-03-05T12:15:42.072Z,23.40
2024-03-05T12:18:12.537Z,20.60
2024-03-05T12:20:43.083Z,19.83
2024-03-05T12:23:12.377Z,23.50
2024-03-05T12:25:40.904Z,20.20
2024-03-05T12:28:09.292Z,18.03
2024-03-05T12:30:37.841Z,19.47
2024-03-05T12:33:07.365Z,20.10
2024-03-05T12:35:37.279Z,20.77
2024-03-05T12:38:07.647Z,19.10
2024-03-05T12:40:36.466Z,20.30
2024-03-05T12:43:10.000Z,20.07
2024-03-05T12:45:39.128Z,23.30
2024-03-05T12:48:10.792Z,17.90
2024-03-05T12:50:41.131Z,19.00
2024-03-05T12:53:11.114Z,18.67
2024-03-05T12:55:39.808Z,18.77
2024-03-05T12:58:10.219Z,16.63
2024-03-05T13:00:39.857Z,18.73
2024-03-05T13:03:09.785Z,20.10
2024-03-05T13:05:41.391Z,16.83
2024-03-05T13:08:10.113Z,19.73
2024-03-05T13:10:38.529Z,16.53
2024-03-05T13:13:08.315Z,17.27
2024-03-05T13:15:38.397Z,17.53
2024-03-05T13:18:09.417Z,15.63
2024-03-05T13:20:37.885Z,17.63
2024-03-05T13:23:08.881Z,17.80
2024-03-05T13:25:37.379Z,19.37
2024-03-05T13:28:06.648Z,17.57
2024-03-05T13:30:36.510Z,17.13
2024-03-05T13:33:05.982Z,20.47
2024-03-05T13:35:34.489Z,15.50
2024-03-05T13:38:05.445Z,20.30
2024-03-05T13:40:37.685Z,19.83
2024-03-05T13:43:11.625Z,14.97
2024-03-05T13:45:40.153Z,13.30
2024-03-05T13:48:10.784Z,13.60
2024-03-05T13:50:39.679Z,13.47
2024-03-05T13:53:08.176Z,12.97
2024-03-05T13:55:38.069Z,15.07
2024-03-05T13:58:07.533Z,15.40
2024-03-05T14:00:39.086Z,14.37
2024-03-05T14:03:13.693Z,15.33
2024-03-05T14:05:42.994Z,14.03
2024-03-05T14:08:13.420Z,13.80
2024-03-05T14:10:43.544Z,12.63
2024-03-05T14:13:15.455Z,13.30
2024-03-05T14:15:44.491Z,13.53
2024-03-05T14:18:13.123Z,14.87
2024-03-05T14:20:42.028Z,13.03
2024-03-05T14:23:13.135Z,16.13
2024-03-05T14:25:44.982Z,16.27
2024-03-05T14:28:13.906Z,17.50
2024-03-05T14:30:42.317Z,20.07
2024-03-05T14:33:12.002Z,17.53
2024-03-05T14:35:40.412Z,18.50
2024-03-05T14:38:14.373Z,16.60
2024-03-05T14:40:44.801Z,16.13
2024-03-05T14:43:13.407Z,19.80
2024-03-05T14:45:42.998Z,16.93
2024-03-05T14:48:11.602Z,18.00
2024-03-05T14:50:40.672Z,17.57
2024-03-05T14:53:09.218Z,16.77
2024-03-05T14:55:37.803Z,20.40
2024-03-05T14:58:07.993Z,18.10
2024-03-05T15:00:37.487Z,18.23
2024-03-05T15:03:06.361Z,18.33
2024-03-05T15:05:34.784Z,20.80
2024-03-05T15:08:03.423Z,18.00
2024-03-05T15:10:32.452Z,16.23
2024-03-05T15:13:00.999Z,17.57
2024-03-05T15:15:30.926Z,17.77
2024-03-05T15:17:59.507Z,16.70
2024-03-05T15:20:27.829Z,18.80
2024-03-05T15:22:56.300Z,16.27
2024-03-05T15:25:25.083Z,16.40
2024-03-05T15:28:01.576Z,17.70
2024-03-05T15:30:35.880Z,20.17
2024-03-05T15:33:07.469Z,16.77
2024-03-05T15:35:36.101Z,20.77
2024-03-05T15:38:06.636Z,18.40
2024-03-05T15:40:35.710Z,18.20
2024-03-05T15:43:07.368Z,19.70
2024-03-05T15:45:39.911Z,19.63
2024-03-05T15:48:11.621Z,18.53
2024-03-05T15:50:42.687Z,19.90
2024-03-05T15:53:11.606Z,19.47
2024-03-05T15:55:45.979Z,18.23
2024-03-05T15:58:42.205Z,18.77
2024-03-05T16:01:12.515Z,19.40
2024-03-05T16:03:56.824Z,18.17
2024-03-05T16:06:31.871Z,18.10
2024-03-05T16:09:01.049Z,17.43
2024-03-05T16:11:29.687Z,18.47
2024-03-05T16:13:58.128Z,16.97
2024-03-05T16:16:28.359Z,20.53
2024-03-05T16:18:59.569Z,18.83
2024-03-05T16:21:29.472Z,22.60
2024-03-05T16:23:58.135Z,18.70
2024-03-05T16:26:26.616Z,19.87
2024-03-05T16:28:55.460Z,20.13
2024-03-05T16:31:24.115Z,18.53
2024-03-05T16:33:54.323Z,18.87
2024-03-05T16:36:22.722Z,18.00
2024-03-05T16:38:52.555Z,18.67
2024-03-05T16:41:22.262Z,18.33
2024-03-05T16:43:50.902Z,17.60
2024-03-05T16:46:19.377Z,16.83
2024-03-05T16:48:48.156Z,19.47
2024-03-05T16:51:18.019Z,19.23
2024-03-05T16:53:46.484Z,18.73
2024-03-05T16:56:16.213Z,20.00
2024-03-05T16:58:45.167Z,17.63
2024-03-05T17:01:18.229Z,18.57
2024-03-05T17:03:47.467Z,18.93
2024-03-05T17:06:20.259Z,19.27
2024-03-05T17:08:50.485Z,20.03
2024-03-05T17:11:19.128Z,22.53
2024-03-05T17:13:49.859Z,24.13
2024-03-05T17:16:20.201Z,18.70
2024-03-05T17:18:48.695Z,20.43
2024-03-05T17:21:18.922Z,18.73
2024-03-05T17:23:48.586Z,20.33
2024-03-05T17:26:17.531Z,16.80
2024-03-05T17:28:46.576Z,18.07
2024-03-05T17:31:15.319Z,22.97
2024-03-05T17:33:43.793Z,26.20
2024-03-05T17:36:12.319Z,29.30
2024-03-05T17:38:43.185Z,23.37
2024-03-05T17:41:11.836Z,24.47
2024-03-05T17:43:40.457Z,29.97
2024-03-05T17:46:10.833Z,25.87
2024-03-05T17:48:39.535Z,25.13
2024-03-05T17:51:11.374Z,23.23
2024-03-05T17:53:41.828Z,20.63
2024-03-05T17:56:15.074Z,22.93
2024-03-05T17:58:43.883Z,23.10
2024-03-05T18:01:13.218Z,22.60
2024-03-05T18:03:44.638Z,20.60
2024-03-05T18:06:17.543Z,18.97
2024-03-05T18:08:47.980Z,20.13
2024-03-05T18:11:16.775Z,20.83
2024-03-05T18:13:45.459Z,18.43
2024-03-05T18:16:15.004Z,18.60
2024-03-05T18:18:43.518Z,18.57
2024-03-05T18:21:14.409Z,19.37
2024-03-05T18:23:43.292Z,21.30
2024-03-05T18:26:13.411Z,18.53
2024-03-05T18:28:44.403Z,20.00
2024-03-05T18:31:17.343Z,19.17
2024-03-05T18:33:47.140Z,18.50
2024-03-05T18:36:16.942Z,16.33
2024-03-05T18:38:48.758Z,17.13
2024-03-05T18:41:18.943Z,15.37
2024-03-05T18:43:48.332Z,14.97
2024-03-05T18:46:16.914Z,16.10
2024-03-05T18:48:45.569Z,19.30
2024-03-05T18:51:15.193Z,16.60
2024-03-05T18:53:49.335Z,18.63
2024-03-05T18:56:20.002Z,16.00
2024-03-05T18:58:48.474Z,18.77
2024-03-05T19:01:16.986Z,22.27
2024-03-05T19:03:46.195Z,18.47
2024-03-05T19:06:15.237Z,19.37
2024-03-05T19:08:44.179Z,20.00
2024-03-05T19:11:14.036Z,16.60
2024-03-05T19:13:44.020Z,15.93
2024-03-05T19:16:15.743Z,18.10
2024-03-05T19:18:46.140Z,18.07
2024-03-05T19:21:17.973Z,16.27
2024-03-05T19:23:47.471Z,15.87
2024-03-05T19:26:17.067Z,15.80
2024-03-05T19:28:46.934Z,15.70
2024-03-05T19:31:15.575Z,15.30
2024-03-05T19:33:44.580Z,14.67
2024-03-05T19:36:14.933Z,14.40
2024-03-05T19:38:43.930Z,15.50
2024-03-05T19:41:12.765Z,14.90
2024-03-05T19:43:41.703Z,16.03
2024-03-05T19:46:11.549Z,16.43
2024-03-05T19:48:40.210Z,16.30
2024-03-05T19:51:08.991Z,16.70
2024-03-05T19:53:37.386Z,14.80
2024-03-05T19:56:06.994Z,13.30
2024-03-05T19:58:35.439Z,16.17
2024-03-05T20:01:04.053Z,17.93
2024-03-05T20:03:34.018Z,17.37
2024-03-05T20:06:02.390Z,17.47
2024-03-05T20:08:34.510Z,17.10
2024-03-05T20:11:03.165Z,13.90
2024-03-05T20:13:32.129Z,16.43
2024-03-05T20:16:00.559Z,16.67
2024-03-05T20:18:34.776Z,17.70
2024-03-05T20:21:03.488Z,21.27
2024-03-05T20:23:31.946Z,20.20
2024-03-05T20:26:00.389Z,22.23
2024-03-05T20:28:28.795Z,23.30
2024-03-05T20:30:57.339Z,23.03
2024-03-05T20:33:25.837Z,22.13
2024-03-05T20:35:55.754Z,23.47
2024-03-05T20:38:27.260Z,25.63
2024-03-05T20:40:56.628Z,22.40
2024-03-05T20:43:25.075Z,25.43
2024-03-05T20:45:53.685Z,24.10
2024-03-05T20:48:22.234Z,21.60
2024-03-05T20:50:51.909Z,19.67
2024-03-05T20:53:22.120Z,17.43
2024-03-05T20:55:53.903Z,20.47
2024-03-05T20:58:22.997Z,22.17
2024-03-05T21:00:51.625Z,16.50
2024-03-05T21:03:23.185Z,20.17
2024-03-05T21:05:51.670Z,19.03
2024-03-05T21:08:21.348Z,18.30
2024-03-05T21:10:50.020Z,18.13
2024-03-05T21:13:25.622Z,15.83
2024-03-05T21:15:54.226Z,18.53
2024-03-05T21:18:22.890Z,16.80
2024-03-05T21:20:51.257Z,18.73
2024-03-05T21:23:21.186Z,16.87
2024-03-05T21:26:03.360Z,18.00
2024-03-05T21:28:38.661Z,17.50
2024-03-05T21:31:07.821Z,18.87
2024-03-05T21:33:36.212Z,19.13
2024-03-05T21:36:05.496Z,19.70
2024-03-05T21:38:35.992Z,20.17
2024-03-05T21:41:04.585Z,21.27
2024-03-05T21:43:33.923Z,21.73
2024-03-05T21:46:05.280Z,20.67
2024-03-05T21:48:34.428Z,19.40
2024-03-05T21:51:09.253Z,21.53
2024-03-05T21:53:43.817Z,20.57
2024-03-05T21:56:12.331Z,21.70
2024-03-05T21:58:43.386Z,20.63
2024-03-05T22:01:12.480Z,20.63
2024-03-05T22:03:40.888Z,20.60
2024-03-05T22:06:15.458Z,20.30
2024-03-05T22:08:50.144Z,21.43
2024-03-05T22:11:18.812Z,17.47
2024-03-05T22:13:48.493Z,19.77
2024-03-05T22:16:17.034Z,21.20
2024-03-05T22:18:46.848Z,22.47
2024-03-05T22:21:15.262Z,18.50
2024-03-05T22:23:43.791Z,22.47
2024-03-05T22:26:13.685Z,23.83
2024-03-05T22:28:43.386Z,23.20
2024-03-05T22:31:12.165Z,20.10
2024-03-05T22:33:50.928Z,21.63
2024-03-05T22:36:20.094Z,21.60
2024-03-05T22:38:50.132Z,22.73
2024-03-05T22:41:22.227Z,22.67
2024-03-05T22:43:51.035Z,18.37
2024-03-05T22:46:19.612Z,20.60
2024-03-05T22:48:48.931Z,20.30
2024-03-05T22:51:17.424Z,23.27
2024-03-05T22:53:46.034Z,21.20
2024-03-05T22:56:14.482Z,20.20
2024-03-05T22:58:44.471Z,21.87
2024-03-05T23:01:13.896Z,20.33
2024-03-05T23:03:42.315Z,20.60
2024-03-05T23:06:15.709Z,19.50
2024-03-05T23:08:47.604Z,18.90
2024-03-05T23:11:16.337Z,26.50
2024-03-05T23:13:46.555Z,21.60
2024-03-05T23:16:15.623Z,22.03
2024-03-05T23:18:43.992Z,19.80
2024-03-05T23:21:12.800Z,18.57
2024-03-05T23:23:45.385Z,19.37
2024-03-05T23:26:13.900Z,20.83
2024-03-05T23:28:42.226Z,19.63
2024-03-05T23:31:12.347Z,21.93
2024-03-05T23:33:40.688Z,20.43
2024-03-05T23:36:09.759Z,23.70
2024-03-05T23:38:38.086Z,19.57
2024-03-05T23:41:16.632Z,19.13
2024-03-05T23:43:49.487Z,22.10
2024-03-05T23:46:19.275Z,18.43
2024-03-05T23:48:47.741Z,19.20
2024-03-05T23:51:16.323Z,19.27
2024-03-05T23:53:44.905Z,21.93
2024-03-05T23:56:13.278Z,18.53
2024-03-05T23:58:41.666Z,19.50
